Time;durP1;ratioP1;P1;durP2;ratioP2;P2;SDS_P1;SDS_P2;PMS_P1;PMS_P2;Temp;Humidity;BMP_temperature;BMP_pressure;BME280_temperature;BME280_humidity;BME280_pressure;Samples;Min_cycle;Max_cycle;Signal;HPM_P1;HPM_P2
2021/12/14 00:01:08;;;;;;;14.98;7.47;;;8.80;99.90;;;;;;5055725;28;20038;-91
2021/12/14 00:03:36;;;;;;;13.13;6.88;;;8.90;99.90;;;;;;5054770;28;20040;-91
2021/12/14 00:06:03;;;;;;;13.82;7.35;;;8.90;99.90;;;;;;5055309;28;20042;-91
2021/12/14 00:08:35;;;;;;;14.88;8.63;;;8.90;99.90;;;;;;5055679;28;20085;-90
2021/12/14 00:13:47;;;;;;;14.85;8.63;;;8.90;99.90;;;;;;5055856;28;20052;-92
2021/12/14 00:16:15;;;;;;;13.13;7.85;;;8.90;99.90;;;;;;5055491;28;20051;-91
2021/12/14 00:18:42;;;;;;;16.00;8.73;;;8.80;99.90;;;;;;5055442;28;20040;-91
2021/12/14 00:21:18;;;;;;;13.10;7.93;;;8.80;99.90;;;;;;5055693;28;20036;-91
2021/12/14 00:26:30;;;;;;;15.07;7.53;;;8.80;99.90;;;;;;5055140;28;20049;-91
2021/12/14 00:28:55;;;;;;;13.70;8.10;;;8.80;99.90;;;;;;5055376;28;20101;-91
2021/12/14 00:31:22;;;;;;;15.15;8.20;;;8.80;99.90;;;;;;5057233;28;20131;-91
2021/12/14 00:33:52;;;;;;;14.30;8.60;;;8.80;99.90;;;;;;5058137;28;20039;-91
2021/12/14 00:36:19;;;;;;;14.45;9.30;;;8.80;99.90;;;;;;5075566;28;20082;-91
2021/12/14 00:38:48;;;;;;;14.98;9.18;;;8.80;99.90;;;;;;5074257;28;20028;-90
2021/12/14 00:41:19;;;;;;;14.23;8.55;;;8.80;99.90;;;;;;5075439;28;20056;-90
2021/12/14 00:43:45;;;;;;;14.32;9.23;;;8.80;99.90;;;;;;5074853;28;20032;-91
2021/12/14 00:46:13;;;;;;;14.88;8.88;;;8.80;99.90;;;;;;5075442;28;20169;-91
2021/12/14 00:48:40;;;;;;;16.38;9.20;;;8.80;99.90;;;;;;5058457;28;20117;-90
2021/12/14 00:51:07;;;;;;;17.35;10.18;;;8.80;99.90;;;;;;5074738;28;20044;-91
2021/12/14 00:53:34;;;;;;;16.38;9.52;;;8.80;99.90;;;;;;5057847;28;20077;-91
2021/12/14 00:56:03;;;;;;;13.55;9.10;;;8.80;99.90;;;;;;5074825;28;20066;-90
2021/12/14 00:58:37;;;;;;;16.38;9.23;;;8.80;99.90;;;;;;5058033;28;20050;-91
2021/12/14 01:01:14;;;;;;;19.38;10.05;;;8.80;99.90;;;;;;5075378;28;20442;-91
2021/12/14 01:03:43;;;;;;;16.77;9.90;;;8.80;99.90;;;;;;5073545;28;20038;-91
2021/12/14 01:06:11;;;;;;;16.75;10.13;;;8.80;99.90;;;;;;5074849;28;20121;-90
2021/12/14 01:08:39;;;;;;;17.38;9.80;;;8.80;99.90;;;;;;5075123;28;20154;-90
2021/12/14 01:11:31;;;;;;;16.35;9.63;;;8.80;99.90;;;;;;5075005;28;20396;-90
2021/12/14 01:14:07;;;;;;;17.20;9.88;;;8.80;99.90;;;;;;5074409;28;20405;-91
2021/12/14 01:16:52;;;;;;;18.10;9.55;;;8.80;99.90;;;;;;5074654;28;20051;-91
2021/12/14 01:19:26;;;;;;;16.02;9.43;;;8.80;99.90;;;;;;5074680;28;20043;-90
2021/12/14 01:25:21;;;;;;;14.70;9.35;;;8.80;99.90;;;;;;5074033;28;20446;-91
2021/12/14 01:28:13;;;;;;;15.18;9.18;;;8.80;99.90;;;;;;5069432;28;20458;-90
2021/12/14 01:31:09;;;;;;;16.05;9.32;;;8.80;99.90;;;;;;5073671;28;20048;-90
2021/12/14 01:33:37;;;;;;;16.35;8.93;;;8.70;99.90;;;;;;5057244;28;20040;-91
2021/12/14 01:36:10;;;;;;;17.58;9.93;;;8.80;99.90;;;;;;5074164;28;20074;-90
2021/12/14 01:38:46;;;;;;;15.60;9.30;;;8.70;99.90;;;;;;5057347;28;20129;-91
2021/12/14 01:41:15;;;;;;;16.17;9.68;;;8.80;99.90;;;;;;5074309;28;20070;-91
2021/12/14 01:43:54;;;;;;;19.42;10.13;;;8.70;99.90;;;;;;5074035;28;20036;-91
2021/12/14 01:46:25;;;;;;;18.02;10.77;;;8.80;99.90;;;;;;5074544;28;20509;-91
2021/12/14 01:48:52;;;;;;;17.75;9.85;;;8.80;99.90;;;;;;5073786;28;20039;-91
2021/12/14 01:51:18;;;;;;;15.85;9.63;;;8.70;99.90;;;;;;5073900;28;20040;-91
2021/12/14 01:53:47;;;;;;;17.33;10.10;;;8.80;99.90;;;;;;5073387;28;20127;-91
2021/12/14 01:56:18;;;;;;;16.73;10.32;;;8.70;99.90;;;;;;5073572;28;20043;-91
2021/12/14 01:58:52;;;;;;;17.30;10.40;;;8.70;99.90;;;;;;5073610;28;20044;-91
2021/12/14 02:01:21;;;;;;;15.88;9.63;;;8.70;99.90;;;;;;5073317;28;20090;-91
2021/12/14 02:03:57;;;;;;;15.98;9.60;;;8.70;99.90;;;;;;5073437;28;20493;-91
2021/12/14 02:06:31;;;;;;;16.52;10.00;;;8.70;99.90;;;;;;5073528;28;20565;-90
2021/12/14 02:09:06;;;;;;;17.70;11.05;;;8.70;99.90;;;;;;5074205;28;20519;-90
2021/12/14 02:11:41;;;;;;;17.77;10.52;;;8.70;99.90;;;;;;5057286;28;20052;-90
2021/12/14 02:14:08;;;;;;;18.60;10.60;;;8.70;99.90;;;;;;5072748;28;20044;-91
2021/12/14 02:16:34;;;;;;;17.55;9.90;;;8.70;99.90;;;;;;5056763;28;20119;-90
2021/12/14 02:19:13;;;;;;;19.13;11.20;;;8.70;99.90;;;;;;5072971;28;20072;-91
2021/12/14 02:21:45;;;;;;;23.33;11.63;;;8.70;99.90;;;;;;5073707;28;20134;-91
2021/12/14 02:24:12;;;;;;;18.52;11.02;;;8.70;99.90;;;;;;5056938;28;20078;-91
2021/12/14 02:26:41;;;;;;;19.33;11.20;;;8.70;99.90;;;;;;5073289;28;20400;-91
2021/12/14 02:29:10;;;;;;;21.30;11.77;;;8.70;99.90;;;;;;5072774;28;20039;-90
2021/12/14 02:31:39;;;;;;;18.42;11.40;;;8.70;99.90;;;;;;5073917;28;20410;-91
2021/12/14 02:34:06;;;;;;;19.13;11.75;;;8.70;99.90;;;;;;5072725;28;20047;-91
2021/12/14 02:36:41;;;;;;;21.73;11.90;;;8.70;99.90;;;;;;5073631;28;20039;-91
2021/12/14 02:39:23;;;;;;;18.58;11.88;;;8.70;99.90;;;;;;5073640;28;20040;-90
2021/12/14 02:41:53;;;;;;;19.15;11.88;;;8.70;99.90;;;;;;5073761;28;20051;-90
2021/12/14 02:44:19;;;;;;;21.75;12.68;;;8.70;99.90;;;;;;5073129;28;20512;-91
2021/12/14 02:46:52;;;;;;;19.10;11.50;;;8.70;99.90;;;;;;5073009;28;20044;-90
2021/12/14 02:49:22;;;;;;;20.65;13.13;;;8.70;99.90;;;;;;5073429;28;20050;-91
2021/12/14 02:51:52;;;;;;;19.92;11.82;;;8.70;99.90;;;;;;5073318;28;20040;-90
2021/12/14 02:54:25;;;;;;;19.83;12.32;;;8.70;99.90;;;;;;5072589;28;20044;-90
2021/12/14 02:56:55;;;;;;;21.73;11.45;;;8.70;99.90;;;;;;5073032;28;20509;-90
2021/12/14 02:59:33;;;;;;;24.00;13.60;;;8.70;99.90;;;;;;5072524;28;20047;-91
2021/12/14 03:02:04;;;;;;;20.60;13.10;;;8.70;99.90;;;;;;5036599;28;20721;-90
2021/12/14 03:04:32;;;;;;;23.02;13.10;;;8.70;99.90;;;;;;5033704;28;20051;-91
2021/12/14 03:07:00;;;;;;;23.33;13.73;;;8.70;99.90;;;;;;5057177;28;20040;-91
2021/12/14 03:12:14;;;;;;;23.83;14.25;;;8.70;99.90;;;;;;5056862;28;20114;-91
2021/12/14 03:14:48;;;;;;;24.58;14.15;;;8.70;99.90;;;;;;5040136;28;20044;-91
2021/12/14 03:17:14;;;;;;;23.20;13.10;;;8.70;99.90;;;;;;5056942;28;20037;-91
2021/12/14 03:19:40;;;;;;;22.40;14.32;;;8.70;99.90;;;;;;5056510;28;20475;-91
2021/12/14 03:22:27;;;;;;;23.85;14.43;;;8.70;99.90;;;;;;5057152;28;20041;-90
2021/12/14 03:24:52;;;;;;;21.52;13.82;;;8.70;99.90;;;;;;5056729;28;20086;-90
2021/12/14 03:27:18;;;;;;;22.70;15.07;;;8.70;99.90;;;;;;5039912;28;20052;-91
2021/12/14 03:29:44;;;;;;;24.55;15.63;;;8.70;99.90;;;;;;5040370;28;20076;-90
2021/12/14 03:32:09;;;;;;;27.27;15.38;;;8.70;99.90;;;;;;5074530;28;20131;-90
2021/12/14 03:34:38;;;;;;;24.45;15.05;;;8.70;99.90;;;;;;5056292;28;20032;-90
2021/12/14 03:37:29;;;;;;;25.20;15.95;;;8.70;99.90;;;;;;5048735;28;20044;-90
2021/12/14 03:39:59;;;;;;;22.42;14.05;;;8.70;99.90;;;;;;5063778;28;20513;-91
2021/12/14 03:42:42;;;;;;;30.02;15.57;;;8.60;99.90;;;;;;5059063;28;20115;-91
2021/12/14 03:45:12;;;;;;;24.85;14.57;;;8.70;99.90;;;;;;5058205;28;20051;-91
2021/12/14 03:47:48;;;;;;;24.55;15.32;;;8.60;99.90;;;;;;5041313;28;20055;-91
2021/12/14 03:50:41;;;;;;;25.48;16.38;;;8.60;99.90;;;;;;5057376;28;20040;-91
2021/12/14 03:53:09;;;;;;;26.55;15.15;;;8.70;99.90;;;;;;5056839;28;20115;-91
2021/12/14 03:55:42;;;;;;;25.25;15.95;;;8.60;99.90;;;;;;5056027;28;20656;-91
2021/12/14 03:58:09;;;;;;;;;;;8.60;99.90;;;;;;5039594;28;20086;-91
2021/12/14 04:00:44;;;;;;;26.23;16.33;;;8.60;99.90;;;;;;5056003;28;19923;-91
2021/12/14 04:03:15;;;;;;;27.10;15.88;;;8.60;99.90;;;;;;5056330;28;20044;-91
2021/12/14 04:05:43;;;;;;;28.67;16.52;;;8.60;99.90;;;;;;5055467;28;20037;-91
2021/12/14 04:08:10;;;;;;;27.10;17.02;;;8.60;99.90;;;;;;5055972;28;20036;-90
2021/12/14 04:10:38;;;;;;;28.95;18.23;;;8.70;99.90;;;;;;5056171;28;20044;-90
2021/12/14 04:13:05;;;;;;;27.70;17.15;;;8.60;99.90;;;;;;5054513;28;20055;-91
2021/12/14 04:15:32;;;;;;;28.80;17.30;;;8.60;99.90;;;;;;5038647;28;20489;-91
2021/12/14 04:17:58;;;;;;;26.73;15.65;;;8.60;99.90;;;;;;5055360;28;20536;-90
2021/12/14 04:20:28;;;;;;;28.23;17.92;;;8.60;99.90;;;;;;5055266;28;20068;-90
2021/12/14 04:22:55;;;;;;;26.58;17.75;;;8.60;99.90;;;;;;5055832;28;20119;-90
2021/12/14 04:25:25;;;;;;;29.30;17.63;;;8.60;99.90;;;;;;5054757;28;20040;-90
2021/12/14 04:27:53;;;;;;;29.88;18.55;;;8.60;99.90;;;;;;5039339;28;20401;-90
2021/12/14 04:30:21;;;;;;;30.10;18.35;;;8.60;99.90;;;;;;5039012;28;20432;-90
2021/12/14 04:32:49;;;;;;;28.42;17.40;;;8.60;99.90;;;;;;5055385;28;20116;-91
2021/12/14 04:35:15;;;;;;;30.33;18.33;;;8.60;99.90;;;;;;5055041;28;20063;-91
2021/12/14 04:37:43;;;;;;;30.25;19.20;;;8.60;99.90;;;;;;5038445;28;20089;-90
2021/12/14 04:53:53;;;;;;;30.77;18.23;;;8.50;99.90;;;;;;5054208;28;20044;-90
2021/12/14 04:56:22;;;;;;;31.98;19.30;;;8.50;99.90;;;;;;5055148;28;20067;-91
2021/12/14 04:58:55;;;;;;;28.83;17.08;;;8.50;99.90;;;;;;5054447;28;20540;-91
2021/12/14 05:01:22;;;;;;;30.85;19.33;;;8.50;99.90;;;;;;5054849;28;20052;-91
2021/12/14 05:03:53;;;;;;;29.15;19.67;;;8.50;99.90;;;;;;5037313;28;20159;-91
2021/12/14 05:06:22;;;;;;;30.27;19.30;;;8.50;99.90;;;;;;5054757;28;20039;-91
2021/12/14 05:11:22;;;;;;;30.02;18.60;;;8.40;99.90;;;;;;5054679;28;20510;-91
2021/12/14 05:13:52;;;;;;;31.02;19.38;;;8.40;99.90;;;;;;5071902;28;20550;-91
2021/12/14 05:16:22;;;;;;;33.85;20.50;;;8.40;99.90;;;;;;5054519;28;20086;-91
2021/12/14 05:18:51;;;;;;;32.45;19.77;;;8.40;99.90;;;;;;5054407;28;20123;-91
2021/12/14 05:21:29;;;;;;;33.42;20.13;;;8.40;99.90;;;;;;5054903;28;20115;-90
2021/12/14 05:23:57;;;;;;;30.83;20.13;;;8.40;99.90;;;;;;5053688;28;20040;-90
2021/12/14 05:26:23;;;;;;;33.10;20.85;;;8.40;99.90;;;;;;5037507;28;20037;-91
2021/12/14 05:28:49;;;;;;;34.15;21.23;;;8.40;99.90;;;;;;5037934;28;20040;-90
2021/12/14 05:31:15;;;;;;;31.85;20.30;;;8.40;99.90;;;;;;5054127;28;20041;-90
2021/12/14 05:33:43;;;;;;;32.63;19.95;;;8.40;99.90;;;;;;5054112;28;20451;-91
2021/12/14 05:36:14;;;;;;;32.13;19.70;;;8.40;99.90;;;;;;5054358;28;20044;-91
2021/12/14 05:38:58;;;;;;;33.22;20.08;;;8.40;99.90;;;;;;5054109;28;20048;-90
2021/12/14 05:44:17;;;;;;;33.72;20.95;;;8.40;99.90;;;;;;5053707;28;20048;-91
2021/12/14 05:46:50;;;;;;;35.45;23.17;;;8.40;99.90;;;;;;5053907;28;20044;-92
2021/12/14 05:49:18;;;;;;;33.63;19.25;;;8.40;99.90;;;;;;5053809;28;20119;-91
2021/12/14 05:51:44;;;;;;;34.20;21.92;;;8.40;99.90;;;;;;5036952;28;20123;-90
2021/12/14 05:54:10;;;;;;;32.55;22.30;;;8.40;99.90;;;;;;5053643;28;20174;-91
2021/12/14 05:56:35;;;;;;;33.00;21.98;;;8.40;99.90;;;;;;5053751;28;20127;-91
2021/12/14 05:59:03;;;;;;;36.72;23.13;;;8.40;99.90;;;;;;5053599;28;20111;-91
2021/12/14 06:01:32;;;;;;;33.70;21.63;;;8.40;99.90;;;;;;5053950;28;20082;-91
2021/12/14 06:04:04;;;;;;;35.75;22.50;;;8.40;99.90;;;;;;5036796;28;20051;-90
2021/12/14 06:06:37;;;;;;;34.55;21.63;;;8.40;99.90;;;;;;5036783;28;20699;-91
2021/12/14 06:09:14;;;;;;;36.85;21.20;;;8.40;99.90;;;;;;5053305;28;20045;-90
2021/12/14 06:11:42;;;;;;;37.13;23.33;;;8.40;99.90;;;;;;5053486;28;20040;-90
2021/12/14 06:14:16;;;;;;;39.55;23.30;;;8.40;99.90;;;;;;5036238;28;20555;-91
2021/12/14 06:16:41;;;;;;;38.03;22.60;;;8.40;99.90;;;;;;5036842;28;20043;-90
2021/12/14 06:19:29;;;;;;;40.28;23.25;;;8.40;99.90;;;;;;5053779;28;20036;-90
2021/12/14 06:22:02;;;;;;;37.60;23.80;;;8.40;99.90;;;;;;5046342;28;20032;-90
2021/12/14 06:24:30;;;;;;;36.88;21.42;;;8.40;99.90;;;;;;5072064;28;20067;-91
2021/12/14 06:26:57;;;;;;;37.72;23.38;;;8.40;99.90;;;;;;5071974;28;20513;-90
2021/12/14 06:29:33;;;;;;;41.63;25.08;;;8.40;99.90;;;;;;5056515;28;20413;-90
2021/12/14 06:32:10;;;;;;;35.08;22.83;;;8.40;99.90;;;;;;5052164;28;20047;-91
2021/12/14 06:34:42;;;;;;;37.25;23.02;;;8.40;99.90;;;;;;5051893;28;20496;-90
2021/12/14 06:37:29;;;;;;;37.92;23.15;;;8.40;99.90;;;;;;5052487;28;20048;-91
2021/12/14 06:40:15;;;;;;;40.65;25.30;;;8.40;99.90;;;;;;5052148;28;20052;-91
2021/12/14 06:42:48;;;;;;;42.75;24.80;;;8.40;99.90;;;;;;5035703;28;20070;-91
2021/12/14 06:45:19;;;;;;;47.28;28.02;;;8.30;99.90;;;;;;5052333;28;20037;-91
2021/12/14 06:47:48;;;;;;;42.05;26.75;;;8.30;99.90;;;;;;5052229;28;20117;-91
2021/12/14 06:50:22;;;;;;;45.78;26.77;;;8.30;99.90;;;;;;5052017;28;20044;-91
2021/12/14 06:52:59;;;;;;;43.85;25.52;;;8.30;99.90;;;;;;5052500;28;20047;-91
2021/12/14 06:55:26;;;;;;;44.58;27.13;;;8.30;99.90;;;;;;5068571;28;20058;-91
2021/12/14 06:57:52;;;;;;;46.15;27.40;;;8.30;99.90;;;;;;5052152;28;20405;-90
2021/12/14 07:00:19;;;;;;;49.08;27.90;;;8.30;99.90;;;;;;5051090;28;20507;-90
2021/12/14 07:02:50;;;;;;;45.05;27.80;;;8.30;99.90;;;;;;5051942;28;20047;-90
2021/12/14 07:05:24;;;;;;;46.13;27.65;;;8.30;99.90;;;;;;5052353;28;20040;-91
2021/12/14 07:07:50;;;;;;;49.88;27.52;;;8.30;99.90;;;;;;5035565;28;20041;-90
2021/12/14 07:10:17;;;;;;;50.30;30.00;;;8.30;99.90;;;;;;5051938;28;20043;-90
2021/12/14 07:12:44;;;;;;;52.70;28.95;;;8.30;99.90;;;;;;5035566;28;20047;-90
2021/12/14 07:15:19;;;;;;;51.08;29.38;;;8.30;99.90;;;;;;5052222;28;20041;-91
2021/12/14 07:17:53;;;;;;;47.08;26.10;;;8.30;99.90;;;;;;5051638;28;20086;-91
2021/12/14 07:20:30;;;;;;;52.38;31.98;;;8.40;99.90;;;;;;5035646;28;20036;-90
2021/12/14 07:23:01;;;;;;;50.53;28.77;;;8.30;99.90;;;;;;5070585;28;20124;-90
2021/12/14 07:25:36;;;;;;;52.70;28.52;;;8.30;99.90;;;;;;5035884;28;20367;-90
2021/12/14 07:28:15;;;;;;;54.08;30.67;;;8.30;99.90;;;;;;5052091;28;20036;-90
2021/12/14 07:30:47;;;;;;;51.92;30.13;;;8.30;99.90;;;;;;5034895;28;20040;-91
2021/12/14 07:33:16;;;;;;;48.95;27.85;;;8.40;99.90;;;;;;5047937;28;20048;-91
2021/12/14 07:35:53;;;;;;;49.60;29.40;;;8.30;99.90;;;;;;5048877;28;20047;-91
2021/12/14 07:38:24;;;;;;;50.75;28.40;;;8.30;99.90;;;;;;5048642;28;20052;-91
2021/12/14 07:40:58;;;;;;;50.58;31.70;;;8.30;99.90;;;;;;5048587;28;20037;-91
2021/12/14 07:43:32;;;;;;;50.75;28.83;;;8.30;99.90;;;;;;5049099;28;20103;-92
2021/12/14 07:45:58;;;;;;;51.40;30.95;;;8.40;99.90;;;;;;5046702;28;20090;-92
2021/12/14 07:48:40;;;;;;;53.92;29.50;;;8.40;99.90;;;;;;5051710;28;20128;-91
2021/12/14 07:51:07;;;;;;;51.22;28.17;;;8.40;99.90;;;;;;5052429;28;20048;-91
2021/12/14 07:53:41;;;;;;;54.05;32.63;;;8.40;99.90;;;;;;5052037;28;20068;-91
2021/12/14 07:56:09;;;;;;;48.65;29.17;;;8.40;99.90;;;;;;5069560;28;20095;-92
2021/12/14 07:58:40;;;;;;;50.45;28.08;;;8.40;99.90;;;;;;5050455;28;20072;-91
2021/12/14 08:01:07;;;;;;;51.60;29.98;;;8.40;99.90;;;;;;5052560;28;20524;-91
2021/12/14 08:03:33;;;;;;;50.53;29.23;;;8.40;99.90;;;;;;5035283;28;20061;-91
2021/12/14 08:06:05;;;;;;;52.65;30.00;;;8.40;99.90;;;;;;5054758;28;20051;-88
2021/12/14 08:08:42;;;;;;;51.27;28.90;;;8.40;99.90;;;;;;5055042;28;20036;-90
2021/12/14 08:11:30;;;;;;;50.88;29.83;;;8.40;99.90;;;;;;5055456;28;20101;-91
2021/12/14 08:14:12;;;;;;;52.85;31.02;;;8.40;99.90;;;;;;5038461;28;20036;-90
2021/12/14 08:16:51;;;;;;;47.90;29.80;;;8.40;99.90;;;;;;5055514;28;20097;-90
2021/12/14 08:19:31;;;;;;;54.28;31.15;;;8.50;99.90;;;;;;5055662;28;20041;-90
2021/12/14 08:21:58;;;;;;;51.67;31.33;;;8.50;99.90;;;;;;5038466;28;20037;-90
2021/12/14 08:24:24;;;;;;;51.13;29.40;;;8.50;99.90;;;;;;5054948;28;20042;-91
2021/12/14 08:26:53;;;;;;;56.55;29.77;;;8.50;99.90;;;;;;5054722;28;20032;-91
2021/12/14 08:29:26;;;;;;;52.58;30.52;;;8.50;99.90;;;;;;5048940;28;20045;-90
2021/12/14 08:32:05;;;;;;;51.60;29.30;;;8.50;99.90;;;;;;5027462;28;20084;-91
2021/12/14 08:34:35;;;;;;;48.67;27.65;;;8.50;99.90;;;;;;5022668;28;20041;-90
2021/12/14 08:37:09;;;;;;;50.63;30.05;;;8.50;99.90;;;;;;5041425;28;20460;-90
2021/12/14 08:39:41;;;;;;;54.55;28.75;;;8.50;99.90;;;;;;5041045;28;20059;-90
2021/12/14 08:42:24;;;;;;;55.80;30.58;;;8.50;99.90;;;;;;5026657;28;20040;-91
2021/12/14 08:44:55;;;;;;;48.75;26.70;;;8.50;99.90;;;;;;5042675;28;20029;-91
2021/12/14 08:47:29;;;;;;;52.85;29.13;;;8.50;99.90;;;;;;5040811;28;20053;-91
2021/12/14 08:49:56;;;;;;;58.70;31.70;;;8.50;99.90;;;;;;5039522;28;20060;-90
2021/12/14 08:52:24;;;;;;;57.50;32.10;;;8.60;99.90;;;;;;5036309;28;20040;-90
2021/12/14 08:54:50;;;;;;;54.63;30.73;;;8.60;99.90;;;;;;5025271;28;20034;-90
2021/12/14 08:57:19;;;;;;;55.40;31.75;;;8.60;99.90;;;;;;5056250;28;20055;-91
2021/12/14 08:59:51;;;;;;;50.85;29.23;;;8.60;99.90;;;;;;5038230;28;20120;-90
2021/12/14 09:02:17;;;;;;;54.10;29.67;;;8.60;99.90;;;;;;5039273;28;20056;-90
2021/12/14 09:05:00;;;;;;;58.10;32.65;;;8.60;99.90;;;;;;5040450;28;20029;-91
2021/12/14 09:07:30;;;;;;;53.17;29.47;;;8.60;99.90;;;;;;5040620;28;20083;-90
2021/12/14 09:09:58;;;;;;;50.75;28.80;;;8.60;99.90;;;;;;5023734;28;20072;-91
2021/12/14 09:12:39;;;;;;;51.75;32.38;;;8.60;99.90;;;;;;5020223;28;20107;-90
2021/12/14 09:15:16;;;;;;;54.03;31.48;;;8.70;99.90;;;;;;5036558;28;20037;-91
2021/12/14 09:17:43;;;;;;;50.38;30.95;;;8.70;99.90;;;;;;5037843;28;20077;-91
2021/12/14 09:20:17;;;;;;;52.10;31.00;;;8.70;99.90;;;;;;5015237;28;20573;-91
2021/12/14 09:22:49;;;;;;;55.20;31.73;;;8.70;99.90;;;;;;5038541;28;20041;-91
2021/12/14 09:25:18;;;;;;;54.90;33.13;;;8.70;99.90;;;;;;5058607;28;20033;-91
2021/12/14 09:27:44;;;;;;;50.65;29.38;;;8.70;99.90;;;;;;5053743;28;20052;-91
2021/12/14 09:30:15;;;;;;;51.50;30.38;;;8.70;99.90;;;;;;5038567;28;20037;-91
2021/12/14 09:32:42;;;;;;;51.20;30.60;;;8.70;99.90;;;;;;5072445;28;20088;-91
2021/12/14 09:35:14;;;;;;;52.08;31.65;;;8.70;99.90;;;;;;5084882;28;20050;-91
2021/12/14 09:37:41;;;;;;;48.30;26.90;;;8.70;99.90;;;;;;5073626;28;20522;-91
2021/12/14 09:40:17;;;;;;;48.65;30.00;;;8.70;99.90;;;;;;5057655;28;20040;-90
2021/12/14 09:42:43;;;;;;;47.88;29.75;;;8.80;99.90;;;;;;5074605;28;20058;-91
2021/12/14 09:45:17;;;;;;;50.22;30.58;;;8.80;99.90;;;;;;5073884;28;20401;-90
2021/12/14 09:47:44;;;;;;;48.05;29.38;;;8.80;99.90;;;;;;5056961;28;20043;-90
2021/12/14 09:50:19;;;;;;;50.45;29.73;;;8.80;99.90;;;;;;5073626;28;20504;-90
2021/12/14 09:52:47;;;;;;;48.03;28.00;;;8.80;99.90;;;;;;5073694;28;20096;-91
2021/12/14 09:55:19;;;;;;;49.08;30.77;;;8.80;99.90;;;;;;5090065;28;20184;-90
2021/12/14 09:57:51;;;;;;;50.43;28.60;;;8.80;99.90;;;;;;5043000;28;20412;-90
2021/12/14 10:00:28;;;;;;;51.67;29.23;;;8.80;99.90;;;;;;5039467;28;20095;-91
2021/12/14 10:02:56;;;;;;;50.38;29.17;;;8.80;99.90;;;;;;5032189;28;20108;-91
2021/12/14 10:05:30;;;;;;;50.80;29.92;;;8.80;99.90;;;;;;5047522;28;20174;-90
2021/12/14 10:07:58;;;;;;;47.35;27.33;;;8.90;99.90;;;;;;5073336;28;20437;-90
2021/12/14 10:10:24;;;;;;;48.05;29.35;;;8.90;99.90;;;;;;5056918;28;20127;-90
2021/12/14 10:12:56;;;;;;;45.28;28.60;;;8.90;99.90;;;;;;5073157;28;20039;-90
2021/12/14 10:15:33;;;;;;;47.70;29.88;;;8.90;99.90;;;;;;5073555;28;20428;-90
2021/12/14 10:18:04;;;;;;;48.58;29.55;;;8.90;99.90;;;;;;5073528;28;20562;-90
2021/12/14 10:20:45;;;;;;;46.47;29.42;;;8.90;99.90;;;;;;5056957;28;20181;-90
2021/12/14 10:23:12;;;;;;;46.40;28.08;;;8.90;99.90;;;;;;5053359;28;20517;-90
2021/12/14 10:25:38;;;;;;;45.83;27.75;;;8.90;99.90;;;;;;5035782;28;20040;-91
2021/12/14 10:28:05;;;;;;;45.83;29.75;;;8.90;99.90;;;;;;5070493;28;20551;-91
2021/12/14 10:30:35;;;;;;;46.08;28.90;;;8.90;99.90;;;;;;5052799;28;20036;-90
2021/12/14 10:33:02;;;;;;;43.05;25.48;;;8.90;99.90;;;;;;5052859;28;20395;-90
2021/12/14 10:35:40;;;;;;;51.38;30.90;;;9.00;99.90;;;;;;5052552;28;20052;-90
2021/12/14 10:43:34;;;;;;;44.80;27.73;;;9.00;99.90;;;;;;5052693;28;20045;-91
2021/12/14 10:46:19;;;;;;;48.40;28.38;;;9.00;99.90;;;;;;5052538;28;20051;-91
2021/12/14 10:48:48;;;;;;;44.80;28.35;;;9.00;99.90;;;;;;5052867;28;20063;-91
2021/12/14 10:51:18;;;;;;;45.90;29.00;;;9.00;99.90;;;;;;5052653;28;20052;-90
2021/12/14 10:53:47;;;;;;;44.78;27.73;;;9.00;99.90;;;;;;5051542;28;20508;-91
2021/12/14 10:56:17;;;;;;;46.05;26.42;;;9.00;99.90;;;;;;5050951;28;20059;-91
2021/12/14 10:58:46;;;;;;;44.53;26.67;;;9.00;99.90;;;;;;5052093;28;20076;-91
2021/12/14 11:01:17;;;;;;;51.70;28.27;;;9.10;99.90;;;;;;5046970;28;20044;-91
2021/12/14 11:03:47;;;;;;;45.40;27.20;;;9.10;99.90;;;;;;5055117;28;20040;-91
2021/12/14 11:06:21;;;;;;;46.35;25.85;;;9.00;99.90;;;;;;5055367;28;20043;-91
2021/12/14 11:09:40;;;;;;;41.60;26.50;;;9.00;99.90;;;;;;5072071;28;20044;-91
2021/12/14 11:11:59;;;;;;;42.47;25.90;;;9.00;99.90;;;;;;5071398;28;20087;-90
2021/12/14 11:14:28;;;;;;;42.20;24.15;;;9.10;99.90;;;;;;5072312;28;20036;-91
2021/12/14 11:19:47;;;;;;;50.10;28.08;;;9.10;99.90;;;;;;5072538;28;20394;-90
2021/12/14 11:22:18;;;;;;;48.92;27.20;;;9.10;99.90;;;;;;5073875;28;20068;-90
2021/12/14 11:24:47;;;;;;;40.97;25.92;;;9.10;99.90;;;;;;5059836;28;20467;-91
2021/12/14 11:27:18;;;;;;;47.33;27.98;;;9.10;99.90;;;;;;5076478;28;20048;-91
2021/12/14 11:29:49;;;;;;;50.47;29.83;;;9.10;99.90;;;;;;5076135;28;20088;-91
2021/12/14 11:32:20;;;;;;;48.60;28.90;;;9.10;99.90;;;;;;5054052;28;20112;-92
2021/12/14 11:34:46;;;;;;;55.97;29.55;;;9.10;99.90;;;;;;5023263;28;20190;-91
2021/12/14 11:37:16;;;;;;;51.90;29.50;;;9.10;99.90;;;;;;5040606;28;20042;-91
2021/12/14 11:39:46;;;;;;;50.78;27.85;;;9.10;99.90;;;;;;5036214;28;20042;-91
2021/12/14 11:42:23;;;;;;;49.45;28.30;;;9.10;99.90;;;;;;5031112;28;20052;-91
2021/12/14 11:44:52;;;;;;;60.00;32.45;;;9.10;99.90;;;;;;5051964;28;20073;-91
2021/12/14 11:49:58;;;;;;;55.03;31.00;;;9.20;99.90;;;;;;5052651;28;20505;-91
2021/12/14 11:52:50;;;;;;;50.40;30.08;;;9.20;99.90;;;;;;5052630;28;20044;-91
2021/12/14 11:55:36;;;;;;;48.67;27.88;;;9.20;99.90;;;;;;5035650;28;20056;-91
2021/12/14 11:58:05;;;;;;;50.35;27.85;;;9.20;99.90;;;;;;5035463;28;20057;-92
2021/12/14 12:00:35;;;;;;;55.83;31.13;;;9.20;99.90;;;;;;5053050;28;20690;-91
2021/12/14 12:03:40;;;;;;;50.25;26.90;;;9.20;99.90;;;;;;5052731;28;20040;-92
2021/12/14 12:06:45;;;;;;;51.85;28.08;;;9.10;99.90;;;;;;5052839;28;20028;-91
2021/12/14 12:09:33;;;;;;;48.40;27.67;;;9.10;99.90;;;;;;5049353;28;20069;-91
2021/12/14 12:12:07;;;;;;;47.63;27.77;;;9.20;99.90;;;;;;5041002;28;20033;-90
2021/12/14 12:14:39;;;;;;;50.80;27.88;;;9.10;99.90;;;;;;5022836;28;20065;-91
2021/12/14 12:17:07;;;;;;;53.22;29.00;;;9.10;99.90;;;;;;5043244;28;20041;-91
2021/12/14 12:19:34;;;;;;;53.05;30.23;;;9.10;99.90;;;;;;5047891;28;20041;-91
2021/12/14 12:22:13;;;;;;;48.67;27.45;;;9.20;99.90;;;;;;5037627;28;20048;-91
2021/12/14 12:24:52;;;;;;;47.33;26.67;;;9.10;99.90;;;;;;5031917;28;20060;-91
2021/12/14 12:27:30;;;;;;;47.17;26.73;;;9.10;99.90;;;;;;5015610;28;20041;-90
2021/12/14 12:30:21;;;;;;;50.03;29.17;;;9.20;99.90;;;;;;4999039;28;20053;-90
2021/12/14 12:32:46;;;;;;;49.15;28.52;;;9.10;99.90;;;;;;5030878;28;20131;-91
2021/12/14 12:35:23;;;;;;;51.15;27.45;;;9.20;99.90;;;;;;5031551;28;20072;-91
2021/12/14 12:37:49;;;;;;;47.42;26.92;;;9.20;99.90;;;;;;5015898;28;20067;-91
2021/12/14 12:40:18;;;;;;;45.83;26.55;;;9.20;99.90;;;;;;5032728;28;20566;-91
2021/12/14 12:42:44;;;;;;;46.25;27.00;;;9.20;99.90;;;;;;5014794;28;20048;-90
2021/12/14 12:45:33;;;;;;;47.53;27.55;;;9.20;99.90;;;;;;5031783;28;20046;-90
2021/12/14 12:48:01;;;;;;;47.90;26.35;;;9.20;99.90;;;;;;5028190;28;20037;-90
2021/12/14 12:50:28;;;;;;;45.70;26.08;;;9.20;99.90;;;;;;5042477;28;20147;-90
2021/12/14 12:52:55;;;;;;;46.33;25.23;;;9.20;99.90;;;;;;5024184;28;20037;-90
2021/12/14 12:55:31;;;;;;;49.90;26.65;;;9.20;99.90;;;;;;5045511;28;20041;-91
2021/12/14 12:58:14;;;;;;;46.40;25.63;;;9.20;99.90;;;;;;5050911;28;20494;-90
2021/12/14 13:00:52;;;;;;;45.53;25.33;;;9.20;99.90;;;;;;5051227;28;20044;-90
2021/12/14 13:03:25;;;;;;;42.50;24.15;;;9.20;99.90;;;;;;5050173;28;20052;-91
2021/12/14 13:06:21;;;;;;;42.35;23.70;;;9.20;99.90;;;;;;5032881;28;20037;-91
2021/12/14 13:08:51;;;;;;;42.67;24.20;;;9.10;99.90;;;;;;5051609;28;20087;-90
2021/12/14 13:11:22;;;;;;;44.03;23.05;;;9.20;99.90;;;;;;5034720;28;20132;-91
2021/12/14 13:13:51;;;;;;;41.17;22.63;;;9.20;99.90;;;;;;5033924;28;20161;-91
2021/12/14 13:16:32;;;;;;;43.13;24.05;;;9.20;99.90;;;;;;5051070;28;20041;-90
2021/12/14 13:19:11;;;;;;;47.38;24.35;;;9.20;99.90;;;;;;5050991;28;20049;-90
2021/12/14 13:21:36;;;;;;;39.28;22.05;;;9.20;99.90;;;;;;5051386;28;20048;-90
2021/12/14 13:24:14;;;;;;;41.90;22.70;;;9.20;99.90;;;;;;5033922;28;20390;-90
2021/12/14 13:27:14;;;;;;;38.85;20.98;;;9.20;99.90;;;;;;5051004;28;20041;-90
2021/12/14 13:29:51;;;;;;;42.53;22.90;;;9.20;99.90;;;;;;5050808;28;20045;-90
2021/12/14 13:32:33;;;;;;;43.90;23.00;;;9.20;99.90;;;;;;5050478;28;20032;-91
2021/12/14 13:35:06;;;;;;;36.57;19.50;;;9.20;99.90;;;;;;5049986;28;20040;-91
2021/12/14 13:37:41;;;;;;;32.65;18.88;;;9.20;99.90;;;;;;5050710;28;20048;-91
2021/12/14 13:40:12;;;;;;;35.25;20.50;;;9.20;99.90;;;;;;5050686;28;20040;-91
2021/12/14 13:42:50;;;;;;;35.08;19.77;;;9.20;99.90;;;;;;5035509;28;20046;-91
2021/12/14 13:45:24;;;;;;;36.55;19.77;;;9.30;99.90;;;;;;5053510;28;20047;-91